To NAV CANADA Home Page Login to a new session Search on AWWS site Feedback and Comments Disclaimer Vers la page française équivalente Tips FAQ What's new on the site To the Forecasts and Observations / NOTAM section To "File a Flight Plan" website Publications and other links Update of the User's profile FIC Telephone Numbers My Weather Data Folder Route Weather Data Regional Weather Data Local Weather Data To the Forecasts and Observations / NOTAM section
Request Generated 05/27/2015 at 11:27:14 UTC . Weather information available at that time is displayed.

METAR/TAF

KINGSTON/ON    

SPECI CYGK 271106Z 18006KT 10SM -SHRA BKN035 OVC095 16/16 A2998 RMK
SC7AC1 CU EMBD VIS S 6 SLP153 DENSITY ALT 400FT=
METAR CYGK 271100Z 18006KT 10SM BKN037 BKN100 16/15 A2998 RMK SC6AC1
VIS E-S 5 SLP153 DENSITY ALT 400FT=
SPECI CYGK 271007Z 24005KT 210V280 6SM BR FEW005 BKN041 OVC100 16/16
A2997 RMK SF1SC7AC1 SF TR VIS E 21/2 SLP150 DENSITY ALT 400FT=
METAR CYGK 271000Z 26004KT 190V280 6SM BR BKN042 OVC100 16/15 A2997
RMK SC7AC1 VIS E 21/2 SLP149 DENSITY ALT 400FT=
LWIS CYGK 270900Z AUTO 19010G15KT 17/16 A2995=

*** REMARK        : Forecast period has ended; this was the last TAF issued
*** REMARQUE : La période de prévision est échue; ceci était le dernier TAF qui a été émis
TAF CYGK 261944Z 2620/2703 19010KT P6SM SKC
FM270000 21008KT P6SM SCT040 BKN080 TEMPO 2700/2703 P6SM -SHRA
BKN040 BKN080
RMK NXT FCST WILL BE ISSUED AT 271145Z=
Your time UTC time
Weather data provided by Environment Canada and NAV CANADA